Time;durP1;ratioP1;P1;durP2;ratioP2;P2;SDS_P1;SDS_P2;PMS_P1;PMS_P2;Temp;Humidity;BMP_temperature;BMP_pressure;BME280_temperature;BME280_humidity;BME280_pressure;Samples;Min_cycle;Max_cycle;Signal;HPM_P1;HPM_P2
2022/03/21 00:01:01;;;;;;;37.03;18.88;;;5.20;99.90;;;;;;5015559;28;20025;-29
2022/03/21 00:03:28;;;;;;;39.95;18.88;;;5.20;99.90;;;;;;5016586;28;20037;-30
2022/03/21 00:05:55;;;;;;;35.67;18.10;;;5.20;99.90;;;;;;5016575;28;20386;-30
2022/03/21 00:08:22;;;;;;;40.50;18.48;;;5.20;99.90;;;;;;5016074;28;20046;-29
2022/03/21 00:10:49;;;;;;;34.75;17.13;;;5.10;99.90;;;;;;5014434;28;20021;-31
2022/03/21 00:13:15;;;;;;;47.28;18.67;;;5.20;99.90;;;;;;5012474;28;20482;-30
2022/03/21 00:15:42;;;;;;;42.42;17.65;;;5.20;99.90;;;;;;4997412;28;20059;-30
2022/03/21 00:18:08;;;;;;;38.97;17.60;;;5.20;99.90;;;;;;5015180;28;20359;-29
2022/03/21 00:20:34;;;;;;;36.47;17.42;;;5.20;99.90;;;;;;5013031;28;20095;-32
2022/03/21 00:23:01;;;;;;;40.50;18.25;;;5.10;99.90;;;;;;5015700;28;20018;-29
2022/03/21 00:25:27;;;;;;;40.28;18.55;;;5.10;99.90;;;;;;5016561;28;20417;-29
2022/03/21 00:27:53;;;;;;;34.85;18.95;;;5.20;99.90;;;;;;5016228;28;20022;-28
2022/03/21 00:30:19;;;;;;;40.13;17.85;;;5.30;99.90;;;;;;5016013;28;20025;-30
2022/03/21 00:32:45;;;;;;;39.17;18.92;;;5.20;99.90;;;;;;5015881;28;20025;-28
2022/03/21 00:35:14;;;;;;;38.05;19.75;;;5.20;99.90;;;;;;5015969;28;20030;-29
2022/03/21 00:37:41;;;;;;;42.00;20.30;;;5.10;99.90;;;;;;5014172;28;20474;-29
2022/03/21 00:40:08;;;;;;;42.72;19.95;;;5.40;99.90;;;;;;5015592;28;20540;-30
2022/03/21 00:42:35;;;;;;;36.53;18.90;;;5.50;99.90;;;;;;5014977;28;20529;-29
2022/03/21 00:45:05;;;;;;;38.63;19.23;;;5.50;99.90;;;;;;4997169;28;20058;-29
2022/03/21 00:47:32;;;;;;;65.00;27.42;;;5.40;99.90;;;;;;5015565;28;20029;-29
2022/03/21 00:49:58;;;;;;;55.40;26.60;;;5.40;99.90;;;;;;4995703;28;20030;-32
2022/03/21 00:52:23;;;;;;;83.65;32.75;;;5.50;99.90;;;;;;5010271;28;20112;-31
2022/03/21 00:54:49;;;;;;;120.78;44.08;;;5.50;99.90;;;;;;5010796;28;20499;-31
2022/03/21 00:57:15;;;;;;;78.43;37.05;;;5.60;99.90;;;;;;5015164;28;20105;-29
2022/03/21 00:59:40;;;;;;;53.05;23.80;;;5.60;99.90;;;;;;5015497;28;20030;-31
2022/03/21 01:02:08;;;;;;;40.03;20.40;;;5.50;99.90;;;;;;5014962;28;20029;-30
2022/03/21 01:04:34;;;;;;;39.55;18.13;;;5.40;99.90;;;;;;5015561;28;20014;-34
2022/03/21 01:06:59;;;;;;;42.78;22.48;;;5.30;99.90;;;;;;5015509;28;20553;-38
2022/03/21 01:09:25;;;;;;;43.92;20.25;;;5.30;99.90;;;;;;5013683;28;20076;-29
2022/03/21 01:11:51;;;;;;;40.75;20.48;;;5.30;99.90;;;;;;5015363;28;20120;-30
2022/03/21 01:14:17;;;;;;;43.35;21.23;;;5.20;99.90;;;;;;4997638;28;20084;-30
2022/03/21 01:16:43;;;;;;;43.80;20.05;;;5.10;99.90;;;;;;5015286;28;20099;-30
2022/03/21 01:19:09;;;;;;;39.78;20.38;;;5.10;99.90;;;;;;5012072;28;20084;-32
2022/03/21 01:21:35;;;;;;;45.17;22.00;;;5.10;99.90;;;;;;5007651;28;20037;-31
2022/03/21 01:24:01;;;;;;;49.03;20.60;;;5.10;99.90;;;;;;5006551;28;20131;-33
2022/03/21 01:26:27;;;;;;;41.78;19.45;;;5.10;99.90;;;;;;5006950;28;20018;-30
2022/03/21 01:28:52;;;;;;;40.20;19.52;;;5.10;99.90;;;;;;5007024;28;20030;-31
2022/03/21 01:31:18;;;;;;;40.45;19.42;;;5.00;99.90;;;;;;5008050;28;20497;-32
2022/03/21 01:33:44;;;;;;;45.05;21.67;;;5.00;99.90;;;;;;5007964;28;20470;-39
2022/03/21 01:36:09;;;;;;;39.42;19.40;;;4.90;99.90;;;;;;5006031;28;20033;-29
2022/03/21 01:38:35;;;;;;;37.63;19.30;;;5.00;99.90;;;;;;5007177;28;20030;-32
2022/03/21 01:41:01;;;;;;;42.80;20.92;;;5.00;99.90;;;;;;5006343;28;20022;-30
2022/03/21 01:43:27;;;;;;;40.70;19.55;;;4.90;99.90;;;;;;5006350;28;20033;-31
2022/03/21 01:45:52;;;;;;;42.75;20.02;;;4.90;99.90;;;;;;5006804;28;20024;-31
2022/03/21 01:48:18;;;;;;;40.65;20.48;;;4.80;99.90;;;;;;5006396;28;20045;-36
2022/03/21 01:50:45;;;;;;;39.58;19.60;;;4.80;99.90;;;;;;5008472;28;20032;-30
2022/03/21 01:55:59;;;;;;;43.38;19.92;;;4.80;99.90;;;;;;5006702;28;20386;-37
2022/03/21 01:58:25;;;;;;;43.83;20.63;;;4.80;99.90;;;;;;4986729;28;20034;-37
2022/03/21 02:00:52;;;;;;;43.45;20.38;;;5.00;99.90;;;;;;5006297;28;20033;-37
2022/03/21 02:03:19;;;;;;;43.78;19.67;;;5.10;99.90;;;;;;5005598;28;20068;-35
2022/03/21 02:05:47;;;;;;;43.35;20.90;;;5.20;99.90;;;;;;5005611;28;20033;-29
2022/03/21 02:08:14;;;;;;;42.15;20.13;;;5.10;99.90;;;;;;5006567;28;20503;-29
2022/03/21 02:10:42;;;;;;;44.90;20.35;;;5.10;99.90;;;;;;5010889;28;20088;-33
2022/03/21 02:13:09;;;;;;;45.63;20.73;;;5.20;99.90;;;;;;5012515;28;20091;-38
2022/03/21 02:15:35;;;;;;;42.77;19.33;;;5.30;99.90;;;;;;5012672;28;20119;-31
2022/03/21 02:18:02;;;;;;;43.40;21.20;;;5.30;99.90;;;;;;5011540;28;20323;-31
2022/03/21 02:20:32;;;;;;;42.60;21.52;;;5.20;99.90;;;;;;5005975;28;20452;-29
2022/03/21 02:23:20;;;;;;;43.45;20.77;;;5.20;99.90;;;;;;5006317;28;20466;-30
2022/03/21 02:25:46;;;;;;;42.95;20.30;;;5.10;99.90;;;;;;5010302;28;20458;-30
2022/03/21 02:28:15;;;;;;;47.08;20.50;;;5.00;99.90;;;;;;5011412;28;20030;-29
2022/03/21 02:30:46;;;;;;;47.65;23.40;;;4.90;99.90;;;;;;5012974;28;20073;-29
2022/03/21 02:33:13;;;;;;;43.63;20.63;;;4.80;99.90;;;;;;5013339;28;20509;-30
2022/03/21 02:35:43;;;;;;;48.75;22.10;;;4.80;99.90;;;;;;5012438;28;20040;-32
2022/03/21 02:38:10;;;;;;;42.65;19.67;;;4.80;99.90;;;;;;5010999;28;20042;-29
2022/03/21 02:40:36;;;;;;;44.85;21.92;;;4.80;99.90;;;;;;5013752;28;20121;-31
2022/03/21 02:43:02;;;;;;;45.47;21.02;;;4.80;99.90;;;;;;5012957;28;20177;-31
2022/03/21 02:45:27;;;;;;;49.08;21.63;;;4.80;99.90;;;;;;5012962;28;20037;-30
2022/03/21 02:47:53;;;;;;;44.70;21.50;;;4.80;99.90;;;;;;5010976;28;20060;-29
2022/03/21 02:50:32;;;;;;;52.17;22.90;;;4.80;99.90;;;;;;5010149;28;20478;-30
2022/03/21 02:52:58;;;;;;;40.03;20.20;;;4.80;99.90;;;;;;5004484;28;20030;-31
2022/03/21 02:55:24;;;;;;;48.22;21.52;;;4.90;99.90;;;;;;5011197;28;20516;-31
2022/03/21 02:57:50;;;;;;;46.65;22.67;;;4.80;99.90;;;;;;5011710;28;20025;-30
2022/03/21 03:00:16;;;;;;;49.22;22.80;;;4.80;99.90;;;;;;5011979;28;20076;-33
2022/03/21 03:02:42;;;;;;;51.65;21.88;;;4.80;99.90;;;;;;4993793;28;20040;-31
2022/03/21 03:05:07;;;;;;;43.42;20.75;;;4.70;99.90;;;;;;5012847;28;20026;-50
2022/03/21 03:07:34;;;;;;;47.75;22.08;;;4.60;99.90;;;;;;5007894;28;20068;-29
2022/03/21 03:10:00;;;;;;;55.38;23.60;;;4.60;99.90;;;;;;4993784;28;20037;-30
2022/03/21 03:12:26;;;;;;;48.88;23.10;;;4.60;99.90;;;;;;5013366;28;20032;-32
2022/03/21 03:14:51;;;;;;;44.83;21.50;;;4.50;99.90;;;;;;5007799;28;20033;-32
2022/03/21 03:17:17;;;;;;;50.10;22.15;;;4.50;99.90;;;;;;5007225;28;20030;-32
2022/03/21 03:19:42;;;;;;;55.55;21.83;;;4.50;99.90;;;;;;4999467;28;20021;-30
2022/03/21 03:22:08;;;;;;;43.60;21.25;;;4.60;99.90;;;;;;5008316;28;20026;-30
2022/03/21 03:24:36;;;;;;;53.58;23.40;;;4.60;99.90;;;;;;5004785;28;20026;-58
2022/03/21 03:27:01;;;;;;;49.57;21.97;;;4.60;99.90;;;;;;5007062;28;20525;-39
2022/03/21 03:29:27;;;;;;;55.17;22.40;;;4.60;99.90;;;;;;5012124;28;20026;-40
2022/03/21 03:31:53;;;;;;;48.30;23.42;;;4.50;99.90;;;;;;5011978;28;20034;-38
2022/03/21 03:34:19;;;;;;;49.15;22.70;;;4.60;99.90;;;;;;5012458;28;20030;-39
2022/03/21 03:36:45;;;;;;;44.97;20.95;;;4.60;99.90;;;;;;5010238;28;20040;-38
2022/03/21 03:39:11;;;;;;;55.17;22.50;;;4.50;99.90;;;;;;5010741;28;20333;-39
2022/03/21 03:41:37;;;;;;;54.25;22.88;;;4.60;99.90;;;;;;5012156;28;20120;-38
2022/03/21 03:44:03;;;;;;;43.83;21.95;;;4.50;99.90;;;;;;5012558;28;20127;-39
2022/03/21 03:46:29;;;;;;;50.63;22.73;;;4.50;99.90;;;;;;5012273;28;20018;-39
2022/03/21 03:48:54;;;;;;;50.92;22.55;;;4.50;99.90;;;;;;5012466;28;20041;-57
2022/03/21 03:51:20;;;;;;;48.55;22.98;;;4.50;99.90;;;;;;4994976;28;20030;-39
2022/03/21 03:53:46;;;;;;;50.70;23.67;;;4.50;99.90;;;;;;5011610;28;20040;-39
2022/03/21 03:56:11;;;;;;;46.10;22.83;;;4.60;99.90;;;;;;4990611;28;20049;-38
2022/03/21 03:58:38;;;;;;;49.60;23.13;;;4.60;99.90;;;;;;5011660;28;20034;-38
2022/03/21 04:01:05;;;;;;;53.28;22.80;;;4.60;99.90;;;;;;5011286;28;20038;-39
2022/03/21 04:03:47;;;;;;;45.60;22.05;;;4.60;99.90;;;;;;5011439;28;20474;-39
2022/03/21 04:06:23;;;;;;;49.08;22.50;;;4.70;99.90;;;;;;5013065;28;20485;-39
2022/03/21 04:08:50;;;;;;;42.78;21.27;;;4.70;99.90;;;;;;5006732;28;20564;-39
2022/03/21 04:11:16;;;;;;;42.88;21.40;;;4.60;99.90;;;;;;5010919;28;20036;-38
2022/03/21 04:13:43;;;;;;;60.22;23.55;;;4.60;99.90;;;;;;4993949;28;20486;-39
2022/03/21 04:16:09;;;;;;;49.17;21.83;;;4.60;99.90;;;;;;5010370;28;20029;-30
2022/03/21 04:18:36;;;;;;;50.53;22.55;;;4.50;99.90;;;;;;5008178;28;20437;-30
2022/03/21 04:21:02;;;;;;;46.28;20.00;;;4.60;99.90;;;;;;5006815;28;20042;-30
2022/03/21 04:23:28;;;;;;;54.05;22.27;;;4.60;99.90;;;;;;5008630;28;20032;-33
2022/03/21 04:25:54;;;;;;;42.47;20.52;;;4.60;99.90;;;;;;5010417;28;20030;-30
2022/03/21 04:28:20;;;;;;;58.33;22.38;;;4.60;99.90;;;;;;5008197;28;20136;-32
2022/03/21 04:30:46;;;;;;;51.70;22.45;;;4.60;99.90;;;;;;4997944;28;20073;-48
2022/03/21 04:33:13;;;;;;;47.58;20.73;;;4.50;99.90;;;;;;5014574;28;20022;-38
2022/03/21 04:35:39;;;;;;;46.00;22.02;;;4.50;99.90;;;;;;5016158;28;20021;-34
2022/03/21 04:38:16;;;;;;;45.83;21.73;;;4.50;99.90;;;;;;5015715;28;20065;-31
2022/03/21 04:40:50;;;;;;;45.28;21.25;;;4.50;99.90;;;;;;5015735;28;20088;-32
2022/03/21 04:43:17;;;;;;;41.35;19.90;;;4.50;99.90;;;;;;5014859;28;20018;-31
2022/03/21 04:45:44;;;;;;;44.13;19.65;;;4.60;99.90;;;;;;5015777;28;20064;-44
2022/03/21 04:48:10;;;;;;;41.83;19.33;;;4.60;99.90;;;;;;5015815;28;20025;-37
2022/03/21 04:50:37;;;;;;;45.78;19.35;;;4.60;99.90;;;;;;5015800;28;20022;-37
2022/03/21 04:53:03;;;;;;;49.53;21.08;;;4.60;99.90;;;;;;5015617;28;20064;-37
2022/03/21 04:55:30;;;;;;;42.03;19.25;;;4.60;99.90;;;;;;5015747;28;20148;-38
2022/03/21 04:57:56;;;;;;;41.83;19.33;;;4.50;99.90;;;;;;4997728;28;20049;-37
2022/03/21 05:00:22;;;;;;;44.22;20.23;;;4.50;99.90;;;;;;5015375;28;20030;-38
2022/03/21 05:02:47;;;;;;;44.70;20.80;;;4.50;99.90;;;;;;5014615;28;20026;-37
2022/03/21 05:05:13;;;;;;;43.95;19.40;;;4.60;99.90;;;;;;5015464;28;20038;-39
2022/03/21 05:07:45;;;;;;;43.88;18.83;;;4.60;99.90;;;;;;5015087;28;20116;-33
2022/03/21 05:10:11;;;;;;;40.90;19.27;;;4.60;99.90;;;;;;5015700;28;20034;-29
2022/03/21 05:12:37;;;;;;;42.45;20.30;;;4.70;99.90;;;;;;5014810;28;20030;-33
2022/03/21 05:15:06;;;;;;;47.67;21.20;;;4.70;99.90;;;;;;5015132;28;20036;-31
2022/03/21 05:17:33;;;;;;;44.72;19.65;;;4.70;99.90;;;;;;5015463;28;20470;-30
2022/03/21 05:19:59;;;;;;;39.40;19.17;;;4.70;99.90;;;;;;5015240;28;20061;-30
2022/03/21 05:22:25;;;;;;;42.60;19.40;;;4.70;99.90;;;;;;5014597;28;20080;-32
2022/03/21 05:35:55;;;;;;;36.60;17.98;;;4.70;99.90;;;;;;5014909;28;20608;-38
2022/03/21 05:38:23;;;;;;;39.70;19.23;;;4.80;99.90;;;;;;5014303;28;20448;-38
2022/03/21 05:40:49;;;;;;;;;;;4.80;99.90;;;;;;5014403;28;20088;-38
2022/03/21 05:43:14;;;;;;;42.83;18.08;;;4.70;99.90;;;;;;4996807;28;20316;-38
2022/03/21 05:45:41;;;;;;;39.47;19.13;;;4.70;99.90;;;;;;4995844;28;20036;-39
2022/03/21 05:50:51;;;;;;;46.28;20.23;;;4.70;99.90;;;;;;5014872;28;20076;-39
2022/03/21 05:53:17;;;;;;;42.67;18.98;;;4.80;99.90;;;;;;5014469;28;20124;-39
2022/03/21 05:55:45;;;;;;;41.85;18.15;;;4.80;99.90;;;;;;5014686;28;20026;-36
2022/03/21 05:58:11;;;;;;;44.40;19.25;;;4.80;99.90;;;;;;5012429;28;20482;-37
2022/03/21 06:00:37;;;;;;;43.40;18.50;;;4.70;99.90;;;;;;5014176;28;20034;-36
2022/03/21 06:03:04;;;;;;;48.38;17.92;;;4.70;99.90;;;;;;5014039;28;20367;-54
2022/03/21 06:05:30;;;;;;;39.40;17.88;;;4.70;99.90;;;;;;5014209;28;20033;-38
2022/03/21 06:07:56;;;;;;;39.35;16.85;;;4.70;99.90;;;;;;5013902;28;20068;-37
2022/03/21 06:10:21;;;;;;;40.88;17.63;;;4.80;99.90;;;;;;5014759;28;20026;-38
2022/03/21 06:12:48;;;;;;;39.00;18.17;;;4.80;99.90;;;;;;5014164;28;20552;-73
2022/03/21 06:15:14;;;;;;;43.63;17.40;;;4.90;99.90;;;;;;5014049;28;20553;-36
2022/03/21 06:17:41;;;;;;;41.10;19.08;;;4.90;99.90;;;;;;5014709;28;20081;-37
2022/03/21 06:20:16;;;;;;;42.28;17.73;;;4.90;99.90;;;;;;5013832;28;20048;-41
2022/03/21 06:22:43;;;;;;;41.47;18.38;;;5.00;99.90;;;;;;5013954;28;20057;-39
2022/03/21 06:25:10;;;;;;;42.13;18.75;;;5.10;99.90;;;;;;5013595;28;20458;-42
2022/03/21 06:27:39;;;;;;;31.88;12.55;;;5.20;99.90;;;;;;5013489;28;20504;-37
2022/03/21 06:30:08;;;;;;;38.25;16.83;;;5.10;99.90;;;;;;5013698;28;20029;-37
2022/03/21 06:32:34;;;;;;;43.38;17.42;;;5.20;99.90;;;;;;5013649;28;20049;-38
2022/03/21 06:34:59;;;;;;;42.15;18.67;;;5.30;99.90;;;;;;5013697;28;20518;-38
2022/03/21 06:37:25;;;;;;;39.08;17.70;;;5.30;99.90;;;;;;5013709;28;20152;-38
2022/03/21 06:39:51;;;;;;;40.00;17.08;;;5.40;99.90;;;;;;5013683;28;20042;-38
2022/03/21 06:42:17;;;;;;;37.50;18.15;;;5.40;99.90;;;;;;5013609;28;20385;-37
2022/03/21 06:44:43;;;;;;;36.63;16.20;;;5.40;99.90;;;;;;5012893;28;20018;-38
2022/03/21 06:47:09;;;;;;;44.80;18.77;;;5.50;99.90;;;;;;4996052;28;20195;-37
2022/03/21 06:49:36;;;;;;;42.22;18.55;;;5.50;99.90;;;;;;5013508;28;20514;-37
2022/03/21 06:52:02;;;;;;;35.95;18.67;;;5.50;99.90;;;;;;5013968;28;20485;-38
2022/03/21 06:54:31;;;;;;;36.33;16.35;;;5.50;99.90;;;;;;5013697;28;20061;-51
2022/03/21 06:56:57;;;;;;;39.00;16.60;;;5.60;99.90;;;;;;5008924;28;20034;-38
2022/03/21 06:59:23;;;;;;;43.33;19.25;;;5.70;99.90;;;;;;5013514;28;20466;-38
2022/03/21 07:01:49;;;;;;;40.67;16.98;;;5.80;99.90;;;;;;5013044;28;20022;-37
2022/03/21 07:04:15;;;;;;;36.35;16.10;;;5.90;99.90;;;;;;5012958;28;20032;-37
2022/03/21 07:06:41;;;;;;;37.70;17.05;;;6.00;99.90;;;;;;5013156;28;20054;-37
2022/03/21 07:09:06;;;;;;;38.22;15.50;;;6.10;99.90;;;;;;5010403;28;20046;-37
2022/03/21 07:11:34;;;;;;;30.88;16.10;;;6.10;99.90;;;;;;5012754;28;20536;-29
2022/03/21 07:14:00;;;;;;;;;;;6.20;99.90;;;;;;5013439;28;20033;-33
2022/03/21 07:16:26;;;;;;;28.35;13.65;;;6.30;99.90;;;;;;5012873;28;19909;-58
2022/03/21 07:18:52;;;;;;;39.38;14.93;;;6.40;99.90;;;;;;5013113;28;20041;-31
2022/03/21 07:21:17;;;;;;;29.88;14.52;;;6.40;99.90;;;;;;5012356;28;20394;-29
2022/03/21 07:23:43;;;;;;;35.75;15.30;;;6.50;99.90;;;;;;5012798;28;20018;-32
2022/03/21 07:26:10;;;;;;;43.60;15.60;;;6.50;99.90;;;;;;5013059;28;20381;-30
2022/03/21 07:28:36;;;;;;;37.60;15.07;;;6.60;99.90;;;;;;5007253;28;20062;-30
2022/03/21 07:31:02;;;;;;;29.77;15.38;;;6.70;99.90;;;;;;5012607;28;20385;-30
2022/03/21 07:33:27;;;;;;;26.65;13.35;;;6.80;99.90;;;;;;5012667;28;20038;-30
2022/03/21 07:35:53;;;;;;;29.55;15.48;;;6.90;99.90;;;;;;5009971;28;20389;-33
2022/03/21 07:38:19;;;;;;;36.35;14.90;;;7.00;99.90;;;;;;5009763;28;20509;-61
2022/03/21 07:40:49;;;;;;;29.55;14.43;;;7.10;99.90;;;;;;5011146;28;20540;-31
2022/03/21 07:43:14;;;;;;;33.30;14.55;;;7.20;99.90;;;;;;5008535;28;20026;-30
2022/03/21 07:48:27;;;;;;;36.00;15.48;;;7.40;99.90;;;;;;5012614;28;20104;-32
2022/03/21 07:50:54;;;;;;;30.80;14.75;;;7.50;99.90;;;;;;5011514;28;20165;-32
2022/03/21 07:53:20;;;;;;;32.60;14.50;;;7.60;99.90;;;;;;5011140;28;20022;-33
2022/03/21 07:55:46;;;;;;;31.80;14.25;;;7.70;99.90;;;;;;5012693;28;20390;-32
2022/03/21 07:58:12;;;;;;;27.33;13.57;;;7.80;99.90;;;;;;4994947;28;20030;-36
2022/03/21 08:00:39;;;;;;;38.17;15.43;;;8.00;99.90;;;;;;5008014;28;20026;-36
2022/03/21 08:03:05;;;;;;;29.65;14.73;;;8.10;99.90;;;;;;5002767;28;20386;-44
2022/03/21 08:05:31;;;;;;;30.10;14.50;;;8.20;99.90;;;;;;5016036;28;20482;-42
2022/03/21 08:07:57;;;;;;;26.98;13.02;;;8.40;99.90;;;;;;5016221;28;20103;-39
2022/03/21 08:10:24;;;;;;;29.88;13.98;;;8.50;99.90;;;;;;5015922;28;20026;-38
2022/03/21 08:12:49;;;;;;;26.80;15.07;;;8.70;99.90;;;;;;4998649;28;20043;-37
2022/03/21 08:15:17;;;;;;;33.08;13.55;;;8.90;99.90;;;;;;5015744;28;20470;-39
2022/03/21 08:17:57;;;;;;;26.27;13.23;;;9.00;99.90;;;;;;5013498;28;20022;-38
2022/03/21 08:20:25;;;;;;;26.50;12.15;;;9.10;99.90;;;;;;5015421;28;20054;-38
2022/03/21 08:22:52;;;;;;;;;;;9.30;99.90;;;;;;4998466;28;20373;-37
2022/03/21 08:25:20;;;;;;;25.83;12.70;;;9.40;99.90;;;;;;5015277;28;19911;-46
2022/03/21 08:27:47;;;;;;;26.83;13.63;;;9.40;99.90;;;;;;5014392;28;20482;-29
2022/03/21 08:30:15;;;;;;;30.60;13.48;;;9.50;99.90;;;;;;5015988;28;20478;-34
2022/03/21 08:32:47;;;;;;;31.80;13.25;;;9.60;99.90;;;;;;5015756;28;20032;-31
2022/03/21 08:35:15;;;;;;;29.80;13.95;;;9.70;99.90;;;;;;5011902;28;20528;-29
2022/03/21 08:37:41;;;;;;;23.73;12.55;;;9.80;99.90;;;;;;5011791;28;20478;-36
2022/03/21 08:40:08;;;;;;;27.38;13.68;;;10.00;99.90;;;;;;5016188;28;20022;-33
2022/03/21 08:42:35;;;;;;;28.42;13.05;;;10.10;99.90;;;;;;5015162;28;20037;-32
2022/03/21 08:45:00;;;;;;;32.13;12.93;;;10.20;99.90;;;;;;5015137;28;20030;-37
2022/03/21 08:47:26;;;;;;;28.70;13.40;;;10.40;99.90;;;;;;5015211;28;20097;-31
2022/03/21 08:49:51;;;;;;;23.60;13.15;;;10.50;99.90;;;;;;5015726;28;20097;-31
2022/03/21 08:52:19;;;;;;;23.50;12.00;;;10.60;99.90;;;;;;5015827;28;20109;-38
2022/03/21 08:54:45;;;;;;;25.40;12.07;;;10.80;99.90;;;;;;4995565;28;20460;-31
2022/03/21 08:57:11;;;;;;;25.15;11.88;;;10.90;99.90;;;;;;5014197;28;20027;-33
2022/03/21 08:59:37;;;;;;;42.97;13.38;;;11.10;99.90;;;;;;5013421;28;20118;-34
2022/03/21 09:02:03;;;;;;;22.60;11.65;;;11.20;99.90;;;;;;5013636;28;20029;-30
2022/03/21 09:04:29;;;;;;;25.33;12.63;;;11.40;99.90;;;;;;5014202;28;20026;-33
2022/03/21 09:06:55;;;;;;;29.80;13.70;;;11.60;99.90;;;;;;5015195;28;20045;-39
2022/03/21 09:09:21;;;;;;;29.83;11.57;;;11.70;99.90;;;;;;4994234;28;20042;-38
2022/03/21 09:11:47;;;;;;;22.92;12.13;;;11.90;99.90;;;;;;4995903;28;20030;-38
2022/03/21 09:14:13;;;;;;;24.00;12.10;;;12.00;99.90;;;;;;4994481;28;20030;-38
2022/03/21 09:16:39;;;;;;;25.73;12.80;;;12.00;99.90;;;;;;4993452;28;20120;-38
2022/03/21 09:19:05;;;;;;;26.42;12.52;;;12.10;99.90;;;;;;4995406;28;20061;-39
2022/03/21 09:21:31;;;;;;;26.50;12.68;;;12.40;99.90;;;;;;4995469;28;20157;-37
2022/03/21 09:23:57;;;;;;;27.60;12.32;;;12.40;99.90;;;;;;4995115;28;20036;-53
2022/03/21 09:26:23;;;;;;;31.25;12.88;;;12.50;99.90;;;;;;4993950;28;20030;-38
2022/03/21 09:28:49;;;;;;;22.02;11.52;;;12.60;99.90;;;;;;4995334;28;20050;-39
2022/03/21 09:31:15;;;;;;;25.13;11.20;;;12.70;99.90;;;;;;4993657;28;20033;-38
2022/03/21 09:33:41;;;;;;;32.03;12.80;;;12.80;99.80;;;;;;4993384;28;20030;-39
2022/03/21 09:36:09;;;;;;;20.92;11.20;;;12.90;99.90;;;;;;4988678;28;21176;-39
2022/03/21 09:38:36;;;;;;;26.63;12.87;;;13.00;98.80;;;;;;4987565;28;20026;-38
2022/03/21 09:41:03;;;;;;;19.45;11.35;;;13.00;98.70;;;;;;4986846;28;20512;-38
2022/03/21 09:43:30;;;;;;;27.88;11.38;;;13.10;98.80;;;;;;4991622;28;20057;-37
2022/03/21 09:45:59;;;;;;;20.33;11.07;;;13.30;98.20;;;;;;4992907;28;20026;-37
2022/03/21 09:48:26;;;;;;;24.88;11.10;;;13.40;97.80;;;;;;4994628;28;20030;-38
2022/03/21 09:50:54;;;;;;;23.55;10.48;;;13.50;97.60;;;;;;4993530;28;20026;-30
2022/03/21 09:53:21;;;;;;;28.17;12.85;;;13.60;97.20;;;;;;4988061;28;20030;-30
2022/03/21 09:55:47;;;;;;;24.77;10.48;;;13.80;96.00;;;;;;4994746;28;20122;-33
2022/03/21 09:58:13;;;;;;;29.65;12.15;;;13.90;96.70;;;;;;4994228;28;20029;-30
2022/03/21 10:00:43;;;;;;;21.42;10.85;;;13.90;96.80;;;;;;4993013;28;20026;-33
2022/03/21 10:03:09;;;;;;;26.88;12.18;;;14.10;96.50;;;;;;5006663;28;20482;-35
2022/03/21 10:05:43;;;;;;;27.58;10.50;;;14.10;96.40;;;;;;5008049;28;20014;-32
2022/03/21 10:08:15;;;;;;;19.98;10.38;;;14.20;96.40;;;;;;4973853;28;20049;-32
2022/03/21 10:10:50;;;;;;;22.65;10.43;;;14.20;95.50;;;;;;4975421;28;20026;-30
2022/03/21 10:13:17;;;;;;;22.70;10.15;;;14.30;95.70;;;;;;4979445;28;20025;-30
2022/03/21 10:15:43;;;;;;;23.48;10.38;;;14.40;94.00;;;;;;4994753;28;20030;-29
2022/03/21 10:18:10;;;;;;;24.85;11.02;;;14.50;94.40;;;;;;4994604;28;20022;-34
2022/03/21 10:20:37;;;;;;;23.10;10.87;;;14.70;94.10;;;;;;4994611;28;20034;-32
2022/03/21 10:23:23;;;;;;;27.27;9.98;;;14.80;93.60;;;;;;4994910;28;20046;-30
2022/03/21 10:25:50;;;;;;;17.75;9.20;;;14.90;93.90;;;;;;4993111;28;20026;-30
2022/03/21 10:28:37;;;;;;;19.10;9.23;;;14.90;92.90;;;;;;4992641;28;20076;-32
2022/03/21 10:31:04;;;;;;;20.48;9.98;;;15.00;93.00;;;;;;4992367;28;20027;-30
2022/03/21 10:33:30;;;;;;;21.40;10.02;;;15.00;92.70;;;;;;4994393;28;20026;-30
2022/03/21 10:35:56;;;;;;;16.55;9.95;;;15.10;91.90;;;;;;4993656;28;20026;-29
2022/03/21 10:38:35;;;;;;;16.15;9.90;;;15.30;92.40;;;;;;4993230;28;20026;-34
2022/03/21 10:41:08;;;;;;;21.13;10.63;;;15.40;91.30;;;;;;4993454;28;20118;-30
2022/03/21 10:43:35;;;;;;;18.98;9.43;;;15.40;92.10;;;;;;4993539;28;20022;-33
2022/03/21 10:46:02;;;;;;;19.23;8.93;;;15.50;92.10;;;;;;4992579;28;20508;-32
2022/03/21 10:48:30;;;;;;;16.97;9.07;;;15.60;91.50;;;;;;4993821;28;20101;-31
2022/03/21 10:50:57;;;;;;;;;;;15.70;91.70;;;;;;4994197;28;20781;-35
2022/03/21 10:53:24;;;;;;;21.85;9.20;;;15.90;90.20;;;;;;4993171;28;19995;-30
2022/03/21 10:55:53;;;;;;;15.57;8.90;;;16.00;90.10;;;;;;4993393;28;20026;-34
2022/03/21 10:58:33;;;;;;;20.73;9.75;;;16.00;89.60;;;;;;4992906;28;20538;-29
2022/03/21 11:01:11;;;;;;;19.38;9.18;;;16.00;89.70;;;;;;4993536;28;20154;-29
2022/03/21 11:03:40;;;;;;;16.17;8.27;;;16.00;90.00;;;;;;4992502;28;20150;-33
2022/03/21 11:06:08;;;;;;;15.15;7.28;;;15.90;90.00;;;;;;4993182;28;20031;-31
2022/03/21 11:08:34;;;;;;;15.90;8.25;;;16.00;88.70;;;;;;5004028;28;20528;-31
2022/03/21 11:10:59;;;;;;;17.05;8.52;;;16.00;87.60;;;;;;5012398;28;20034;-44
2022/03/21 11:13:27;;;;;;;16.30;7.93;;;16.10;88.50;;;;;;5012251;28;20068;-30
2022/03/21 11:15:53;;;;;;;16.58;7.72;;;16.20;87.70;;;;;;5011736;28;20026;-31
2022/03/21 11:18:21;;;;;;;17.45;7.43;;;16.30;88.90;;;;;;4994461;28;20391;-32
2022/03/21 11:20:49;;;;;;;17.98;7.28;;;16.40;89.00;;;;;;5011915;28;20057;-38
2022/03/21 11:23:15;;;;;;;20.30;7.55;;;16.30;88.20;;;;;;4993623;28;20018;-34
2022/03/21 11:25:49;;;;;;;18.70;9.05;;;16.50;88.90;;;;;;5002152;28;20083;-33
2022/03/21 11:28:49;;;;;;;16.50;8.20;;;16.60;88.50;;;;;;5012635;28;20087;-35
2022/03/21 11:31:31;;;;;;;15.15;8.50;;;16.60;88.90;;;;;;5012098;28;20092;-32
2022/03/21 11:34:21;;;;;;;18.15;8.80;;;16.70;89.40;;;;;;5011719;28;20084;-31
2022/03/21 11:36:55;;;;;;;13.90;8.18;;;16.90;88.80;;;;;;5012526;28;20030;-33
2022/03/21 11:39:21;;;;;;;13.98;8.65;;;17.00;89.60;;;;;;5012350;28;20057;-32
2022/03/21 11:42:15;;;;;;;13.73;8.18;;;17.10;90.20;;;;;;5011983;28;20105;-33
2022/03/21 11:45:19;;;;;;;11.80;7.22;;;17.20;89.80;;;;;;5012649;28;20022;-35
2022/03/21 11:47:45;;;;;;;14.95;7.55;;;17.30;89.60;;;;;;5012002;28;20076;-35
2022/03/21 11:50:25;;;;;;;15.98;8.35;;;17.40;90.10;;;;;;5011323;28;20424;-31
2022/03/21 11:53:11;;;;;;;16.20;8.80;;;17.40;90.90;;;;;;4994725;28;20041;-35
2022/03/21 11:55:38;;;;;;;16.17;9.23;;;17.50;90.90;;;;;;4994498;28;20540;-33
2022/03/21 11:58:22;;;;;;;18.67;8.73;;;17.70;90.40;;;;;;5011931;28;20037;-34
2022/03/21 12:01:16;;;;;;;18.75;8.52;;;17.80;90.40;;;;;;4994217;28;20045;-32
2022/03/21 12:03:43;;;;;;;19.10;8.50;;;17.90;90.20;;;;;;5012310;28;20037;-29
2022/03/21 12:06:32;;;;;;;16.58;7.40;;;18.00;90.90;;;;;;5012018;28;20025;-37
2022/03/21 12:09:08;;;;;;;19.90;8.48;;;17.90;91.20;;;;;;5012683;28;20051;-33
2022/03/21 12:11:40;;;;;;;17.80;8.20;;;17.90;91.20;;;;;;4994483;28;20030;-32
2022/03/21 12:14:20;;;;;;;16.30;8.75;;;17.90;91.30;;;;;;5012791;28;20076;-33
2022/03/21 12:16:47;;;;;;;18.10;8.82;;;17.90;91.60;;;;;;5010636;28;20026;-36
2022/03/21 12:19:12;;;;;;;17.00;8.90;;;17.90;91.40;;;;;;5012003;28;20466;-48
2022/03/21 12:21:38;;;;;;;17.08;8.90;;;17.80;91.80;;;;;;5011493;28;20030;-40
2022/03/21 12:24:17;;;;;;;15.45;8.02;;;17.80;92.10;;;;;;4995066;28;20018;-38
2022/03/21 12:26:50;;;;;;;20.17;9.38;;;17.80;92.10;;;;;;5011902;28;20105;-39
2022/03/21 12:29:33;;;;;;;15.70;8.23;;;18.00;91.90;;;;;;5013010;28;20045;-38
2022/03/21 12:32:24;;;;;;;15.27;8.77;;;18.20;92.00;;;;;;5009195;28;20038;-40
2022/03/21 12:34:51;;;;;;;13.63;8.23;;;18.40;91.70;;;;;;5011748;28;20060;-40
2022/03/21 12:37:46;;;;;;;16.25;8.18;;;18.40;92.00;;;;;;5012093;28;20030;-38
2022/03/21 12:40:13;;;;;;;25.30;9.82;;;18.20;92.10;;;;;;4987041;28;20434;-41
2022/03/21 12:42:45;;;;;;;20.35;8.50;;;18.30;91.70;;;;;;5011676;28;20080;-40
2022/03/21 12:45:17;;;;;;;17.83;8.45;;;18.30;92.00;;;;;;5012051;28;20026;-39
2022/03/21 12:47:42;;;;;;;17.15;8.27;;;18.40;91.60;;;;;;5010146;28;20022;-40
2022/03/21 12:50:09;;;;;;;17.27;9.20;;;18.40;91.90;;;;;;5012741;28;20029;-40
2022/03/21 12:52:35;;;;;;;17.00;8.37;;;18.50;92.00;;;;;;4997488;28;20510;-38
2022/03/21 12:55:01;;;;;;;20.98;8.82;;;18.60;91.70;;;;;;5015313;28;20022;-39
2022/03/21 12:57:27;;;;;;;21.75;9.75;;;18.60;91.90;;;;;;5015540;28;20566;-39
2022/03/21 13:00:13;;;;;;;28.08;9.15;;;18.70;91.90;;;;;;5014035;28;20037;-39